createdAt,value
2017-03-15T00:00:02.738Z,99.99
2017-03-15T00:00:30.919Z,99.99
2017-03-15T00:00:59.172Z,99.99
2017-03-15T00:01:27.506Z,99.99
2017-03-15T00:01:55.825Z,99.99
2017-03-15T00:02:24.284Z,99.99
2017-03-15T00:02:52.590Z,99.99
2017-03-15T00:03:20.598Z,99.99
2017-03-15T00:03:48.899Z,99.99
2017-03-15T00:04:17.315Z,99.99
2017-03-15T00:04:45.403Z,99.99
2017-03-15T00:05:13.691Z,99.99
2017-03-15T00:05:41.948Z,99.99
2017-03-15T00:06:10.166Z,99.99
2017-03-15T00:06:38.293Z,99.99
2017-03-15T00:07:06.480Z,99.99
2017-03-15T00:07:34.754Z,99.99
2017-03-15T00:08:03.118Z,99.99
2017-03-15T00:08:31.323Z,99.99
2017-03-15T00:08:59.607Z,99.99
2017-03-15T00:09:27.851Z,99.99
2017-03-15T00:09:55.888Z,99.99
2017-03-15T00:10:24.161Z,99.99
2017-03-15T00:10:52.326Z,99.99
2017-03-15T00:11:20.495Z,99.99
2017-03-15T00:11:48.635Z,99.99
2017-03-15T00:12:16.706Z,99.99
2017-03-15T00:12:45.026Z,99.99
2017-03-15T00:13:13.192Z,99.99
2017-03-15T00:13:41.337Z,99.99
2017-03-15T00:14:09.499Z,99.99
2017-03-15T00:14:37.559Z,99.99
2017-03-15T00:15:05.808Z,99.99
2017-03-15T00:15:34.013Z,99.99
2017-03-15T00:16:02.091Z,99.99
2017-03-15T00:16:30.311Z,99.99
2017-03-15T00:16:58.467Z,99.99
2017-03-15T00:17:26.786Z,99.99
2017-03-15T00:17:54.956Z,99.99
2017-03-15T00:18:23.231Z,99.99
2017-03-15T00:18:51.492Z,99.99
2017-03-15T00:19:19.732Z,99.99
2017-03-15T00:19:47.971Z,99.99
2017-03-15T00:20:16.151Z,99.99
2017-03-15T00:20:44.243Z,99.99
2017-03-15T00:21:12.319Z,99.99
2017-03-15T00:21:40.619Z,99.99
2017-03-15T00:22:08.746Z,99.99
2017-03-15T00:22:36.719Z,99.99
2017-03-15T00:23:05.041Z,99.99
2017-03-15T00:23:33.319Z,99.99
2017-03-15T00:24:01.559Z,99.99
2017-03-15T00:24:29.909Z,99.99
2017-03-15T00:24:58.133Z,99.99
2017-03-15T00:25:26.482Z,99.99
2017-03-15T00:25:54.743Z,99.99
2017-03-15T00:26:23.065Z,99.99
2017-03-15T00:26:51.423Z,99.99
2017-03-15T00:27:19.708Z,99.99
2017-03-15T00:27:48.118Z,99.99
2017-03-15T00:28:16.243Z,99.99
2017-03-15T00:28:44.625Z,99.99
2017-03-15T00:29:12.839Z,99.99
2017-03-15T00:29:40.994Z,99.99
2017-03-15T00:30:09.334Z,99.99
2017-03-15T00:30:38.352Z,99.99
2017-03-15T00:31:06.536Z,99.99
2017-03-15T00:31:34.784Z,99.99
2017-03-15T00:32:03.002Z,99.99
2017-03-15T00:32:31.255Z,99.99
2017-03-15T00:32:59.526Z,99.99
2017-03-15T00:33:27.770Z,99.99
2017-03-15T00:33:55.951Z,99.99
2017-03-15T00:34:24.171Z,99.99
2017-03-15T00:34:52.507Z,99.99
2017-03-15T00:35:20.739Z,99.99
2017-03-15T00:35:49.003Z,99.99
2017-03-15T00:36:17.229Z,99.99
2017-03-15T00:36:45.369Z,99.99
2017-03-15T00:37:13.585Z,99.99
2017-03-15T00:37:41.886Z,99.99
2017-03-15T00:38:10.037Z,99.99
2017-03-15T00:38:38.067Z,99.99
2017-03-15T00:39:06.244Z,99.99
2017-03-15T00:39:34.292Z,99.99
2017-03-15T00:40:02.839Z,99.99
2017-03-15T00:40:31.046Z,99.99
2017-03-15T00:40:59.175Z,99.99
2017-03-15T00:41:27.445Z,99.99
2017-03-15T00:41:55.668Z,99.99
2017-03-15T00:42:23.817Z,99.99
2017-03-15T00:42:52.045Z,99.99
2017-03-15T00:43:20.196Z,99.99
2017-03-15T00:43:48.436Z,99.99
2017-03-15T00:44:16.623Z,99.99
2017-03-15T00:44:44.791Z,99.99
2017-03-15T00:45:13.043Z,99.99
2017-03-15T00:45:41.282Z,99.99
2017-03-15T00:46:09.403Z,99.99
2017-03-15T00:46:37.592Z,99.99
2017-03-15T00:47:05.836Z,99.99
2017-03-15T00:47:33.976Z,99.99
2017-03-15T00:48:02.376Z,99.99
2017-03-15T00:48:30.575Z,99.99
2017-03-15T00:48:58.711Z,99.99
2017-03-15T00:49:26.857Z,99.99
2017-03-15T00:49:55.034Z,99.99
2017-03-15T00:50:23.188Z,99.99
2017-03-15T00:50:51.286Z,99.99
2017-03-15T00:51:19.558Z,99.99
2017-03-15T00:51:47.866Z,99.99
2017-03-15T00:52:16.132Z,99.99
2017-03-15T00:52:44.220Z,99.99
2017-03-15T00:53:12.397Z,99.99
2017-03-15T00:53:40.571Z,99.99
2017-03-15T00:54:08.807Z,99.99
2017-03-15T00:54:36.969Z,99.99
2017-03-15T00:55:05.101Z,99.99
2017-03-15T00:55:33.182Z,99.99
2017-03-15T00:56:01.428Z,99.99
2017-03-15T00:56:29.675Z,99.99
2017-03-15T00:56:57.908Z,99.99
2017-03-15T00:57:26.039Z,99.99
2017-03-15T00:57:54.415Z,99.99
2017-03-15T00:58:22.598Z,99.99
2017-03-15T00:58:50.848Z,99.99
2017-03-15T00:59:19.144Z,99.99
2017-03-15T00:59:47.287Z,99.99
2017-03-15T01:00:15.458Z,99.99
2017-03-15T01:00:43.636Z,99.99
2017-03-15T01:01:11.839Z,99.99
2017-03-15T01:01:40.047Z,99.99
2017-03-15T01:02:08.281Z,99.99
2017-03-15T01:02:36.331Z,99.99
2017-03-15T01:03:04.735Z,99.99
2017-03-15T01:03:32.757Z,99.99
2017-03-15T01:04:01.032Z,99.99
2017-03-15T01:04:29.064Z,99.99
2017-03-15T01:04:57.195Z,99.99
2017-03-15T01:05:25.344Z,99.99
2017-03-15T01:05:53.377Z,99.99
2017-03-15T01:06:21.606Z,99.99
2017-03-15T01:06:49.651Z,99.99
2017-03-15T01:07:17.932Z,99.99
2017-03-15T01:07:46.140Z,99.99
2017-03-15T01:08:14.541Z,99.99
2017-03-15T01:08:42.598Z,99.99
2017-03-15T01:09:10.746Z,99.99
2017-03-15T01:09:38.918Z,99.99
2017-03-15T01:10:07.182Z,99.99
2017-03-15T01:10:35.434Z,99.99
2017-03-15T01:11:03.596Z,99.99
2017-03-15T01:11:31.775Z,99.99
2017-03-15T01:11:59.842Z,99.99
2017-03-15T01:12:27.961Z,99.99
2017-03-15T01:12:56.200Z,99.99
2017-03-15T01:13:24.371Z,99.99
2017-03-15T01:13:52.535Z,99.99
2017-03-15T01:14:20.988Z,99.99
2017-03-15T01:14:49.252Z,99.99
2017-03-15T01:15:17.400Z,99.99
2017-03-15T01:15:45.570Z,99.99
2017-03-15T01:16:13.752Z,99.99
2017-03-15T01:16:42.007Z,99.99
2017-03-15T01:17:10.188Z,99.99
2017-03-15T01:17:38.466Z,99.99
2017-03-15T01:18:06.685Z,99.99
2017-03-15T01:18:34.883Z,99.99
2017-03-15T01:19:03.035Z,99.99
2017-03-15T01:19:31.159Z,99.99
2017-03-15T01:19:59.295Z,99.99
2017-03-15T01:20:27.492Z,99.99
2017-03-15T01:20:55.521Z,99.99
2017-03-15T01:21:23.959Z,99.99
2017-03-15T01:21:51.988Z,99.99
2017-03-15T01:22:20.240Z,99.99
2017-03-15T01:22:48.640Z,99.99
2017-03-15T01:23:16.986Z,99.99
2017-03-15T01:23:45.512Z,99.99
2017-03-15T01:24:14.013Z,99.99
2017-03-15T01:24:42.282Z,99.99
2017-03-15T01:25:10.731Z,99.99
2017-03-15T01:25:39.025Z,99.99
2017-03-15T01:26:07.274Z,99.99
2017-03-15T01:26:35.518Z,99.99
2017-03-15T01:27:04.404Z,99.98
2017-03-15T01:27:32.727Z,99.99
2017-03-15T01:28:01.150Z,99.99
2017-03-15T01:28:29.668Z,99.99
2017-03-15T01:28:58.131Z,99.99
2017-03-15T01:29:26.689Z,99.99
2017-03-15T01:29:55.056Z,99.99
2017-03-15T01:30:23.450Z,99.99
2017-03-15T01:30:52.034Z,99.99
2017-03-15T01:31:20.252Z,99.99
2017-03-15T01:31:48.705Z,99.99
2017-03-15T01:32:17.095Z,99.99
2017-03-15T01:32:45.505Z,99.99
2017-03-15T01:33:14.142Z,99.99
2017-03-15T01:33:42.392Z,99.88
2017-03-15T01:34:10.657Z,99.59
2017-03-15T01:34:38.882Z,99.98
2017-03-15T01:35:07.045Z,99.84
2017-03-15T01:35:35.439Z,99.98
2017-03-15T01:36:04.067Z,99.99
2017-03-15T01:36:32.325Z,99.79
2017-03-15T01:37:00.448Z,99.98
2017-03-15T01:37:28.599Z,99.88
2017-03-15T01:37:56.764Z,99.88
2017-03-15T01:38:25.127Z,99.99
2017-03-15T01:38:53.399Z,99.3
2017-03-15T01:39:21.655Z,99.21
2017-03-15T01:39:49.853Z,99.84
2017-03-15T01:40:18.094Z,98.92
2017-03-15T01:40:46.224Z,99.3
2017-03-15T01:41:14.479Z,98.87
2017-03-15T01:41:42.733Z,99.26
2017-03-15T01:42:10.982Z,99.11
2017-03-15T01:42:39.072Z,99.3
2017-03-15T01:43:07.340Z,99.26
2017-03-15T01:43:35.768Z,98.77
2017-03-15T01:44:03.914Z,99.35
2017-03-15T01:44:31.973Z,99.5
2017-03-15T01:45:00.187Z,99.3
2017-03-15T01:45:28.339Z,99.4
2017-03-15T01:45:56.534Z,99.3
2017-03-15T01:46:24.794Z,99.3
2017-03-15T01:46:53.034Z,99.4
2017-03-15T01:47:21.289Z,99.3
2017-03-15T01:47:49.514Z,99.21
2017-03-15T01:48:17.734Z,99.3
2017-03-15T01:48:45.977Z,99.11
2017-03-15T01:49:14.051Z,99.21
2017-03-15T01:49:42.330Z,99.3
2017-03-15T01:50:10.553Z,98.92
2017-03-15T01:50:38.888Z,99.11
2017-03-15T01:51:08.033Z,98.92
2017-03-15T01:51:36.012Z,98.92
2017-03-15T01:52:04.468Z,99.4
2017-03-15T01:52:32.732Z,99.4
2017-03-15T01:53:00.980Z,98.92
2017-03-15T01:53:29.234Z,98.92
2017-03-15T01:53:57.458Z,98.92
2017-03-15T01:54:25.609Z,99.59
2017-03-15T01:54:53.744Z,99.4
2017-03-15T01:55:21.976Z,99.4
2017-03-15T01:55:50.136Z,99.5
2017-03-15T01:56:18.415Z,99.11
2017-03-15T01:56:46.652Z,99.02
2017-03-15T01:57:14.762Z,99.5
2017-03-15T01:57:42.893Z,99.5
2017-03-15T01:58:11.129Z,99.5
2017-03-15T01:58:39.556Z,99.21
2017-03-15T01:59:07.785Z,99.3
2017-03-15T01:59:36.056Z,99.4
2017-03-15T02:00:04.242Z,99.99
2017-03-15T02:00:32.493Z,99.98
2017-03-15T02:01:00.777Z,99.98
2017-03-15T02:01:29.055Z,99.98
2017-03-15T02:01:57.127Z,99.98
2017-03-15T02:02:25.296Z,99.88
2017-03-15T02:02:53.401Z,99.98
2017-03-15T02:03:21.663Z,99.98
2017-03-15T02:03:49.950Z,99.98
2017-03-15T02:04:18.211Z,99.3
2017-03-15T02:04:46.362Z,99.88
2017-03-15T02:05:14.573Z,99.3
2017-03-15T02:05:42.628Z,99.21
2017-03-15T02:06:10.773Z,99.11
2017-03-15T02:06:38.824Z,99.59
2017-03-15T02:07:07.088Z,99.4
2017-03-15T02:07:35.262Z,99.59
2017-03-15T02:08:03.500Z,99.4
2017-03-15T02:08:31.720Z,99.4
2017-03-15T02:09:00.099Z,99.3
2017-03-15T02:09:28.247Z,99.02
2017-03-15T02:09:56.493Z,99.3
2017-03-15T02:10:24.652Z,98.92
2017-03-15T02:10:52.811Z,99.11
2017-03-15T02:11:21.081Z,98.72
2017-03-15T02:11:49.229Z,98.63
2017-03-15T02:12:17.615Z,98.72
2017-03-15T02:12:45.780Z,98.82
2017-03-15T02:13:13.993Z,98.63
2017-03-15T02:13:42.174Z,98.72
2017-03-15T02:14:10.226Z,98.63
2017-03-15T02:14:38.277Z,98.63
2017-03-15T02:15:06.539Z,99.02
2017-03-15T02:15:34.632Z,98.44
2017-03-15T02:16:02.897Z,98.82
2017-03-15T02:16:30.976Z,98.82
2017-03-15T02:16:59.136Z,98.82
2017-03-15T02:17:27.245Z,98.92
2017-03-15T02:17:55.303Z,98.54
2017-03-15T02:18:23.436Z,98.82
2017-03-15T02:18:51.673Z,98.72
2017-03-15T02:19:19.793Z,98.72
2017-03-15T02:19:47.887Z,98.72
2017-03-15T02:20:16.137Z,98.82
2017-03-15T02:20:44.349Z,98.54
2017-03-15T02:21:12.508Z,98.63
2017-03-15T02:21:40.655Z,98.72
2017-03-15T02:22:08.798Z,99.3
2017-03-15T02:22:37.022Z,99.21
2017-03-15T02:23:05.111Z,99.4
2017-03-15T02:23:33.265Z,98.63
2017-03-15T02:24:01.460Z,99.59
2017-03-15T02:24:29.743Z,99.3
2017-03-15T02:24:57.783Z,99.3
2017-03-15T02:25:26.063Z,99.5
2017-03-15T02:25:54.280Z,99.3
2017-03-15T02:26:22.431Z,99.3
2017-03-15T02:26:50.602Z,99.11
2017-03-15T02:27:18.797Z,99.3
2017-03-15T02:27:47.084Z,99.3
2017-03-15T02:28:15.112Z,99.06
2017-03-15T02:28:43.253Z,99.11
2017-03-15T02:29:11.511Z,98.68
2017-03-15T02:29:39.688Z,99.4
2017-03-15T02:30:07.826Z,99.3
2017-03-15T02:30:36.094Z,99.02
2017-03-15T02:31:04.330Z,99.79
2017-03-15T02:31:32.612Z,99.11
2017-03-15T02:32:00.658Z,99.54
2017-03-15T02:32:28.783Z,99.35
2017-03-15T02:32:56.943Z,99.93
2017-03-15T02:33:25.248Z,99.74
2017-03-15T02:33:53.421Z,99.99
2017-03-15T02:34:21.659Z,99.99
2017-03-15T02:34:49.908Z,99.93
2017-03-15T02:35:18.043Z,99.74
2017-03-15T02:35:46.136Z,99.69
2017-03-15T02:36:14.291Z,99.98
2017-03-15T02:36:42.505Z,99.59
2017-03-15T02:37:10.747Z,99.64
2017-03-15T02:37:38.812Z,99.88
2017-03-15T02:38:07.092Z,99.69
2017-03-15T02:38:35.284Z,99.99
2017-03-15T02:39:03.463Z,99.99
2017-03-15T02:39:31.621Z,99.99
2017-03-15T02:39:59.833Z,99.99
2017-03-15T02:40:27.966Z,99.99
2017-03-15T02:40:56.240Z,99.99
2017-03-15T02:41:24.505Z,99.99
2017-03-15T02:41:52.773Z,99.99
2017-03-15T02:42:20.881Z,99.99
2017-03-15T02:42:49.028Z,99.99
2017-03-15T02:43:17.157Z,99.99
2017-03-15T02:43:45.666Z,99.99
2017-03-15T02:44:13.802Z,99.99
2017-03-15T02:44:42.028Z,99.99
2017-03-15T02:45:10.284Z,99.99
2017-03-15T02:45:38.446Z,99.99
2017-03-15T02:46:06.600Z,99.99
2017-03-15T02:46:34.879Z,99.99
2017-03-15T02:47:02.919Z,99.99
2017-03-15T02:47:31.082Z,99.99
2017-03-15T02:47:59.349Z,99.99
2017-03-15T02:48:27.595Z,99.99
2017-03-15T02:48:55.864Z,99.99
2017-03-15T02:49:23.897Z,99.99
2017-03-15T02:49:52.186Z,99.99
2017-03-15T02:50:20.355Z,99.99
2017-03-15T02:50:48.541Z,99.99
2017-03-15T02:51:16.751Z,99.99
2017-03-15T02:51:45.036Z,99.99
2017-03-15T02:52:13.271Z,99.99
2017-03-15T02:52:41.426Z,99.99
2017-03-15T02:53:09.468Z,99.99
2017-03-15T02:53:37.679Z,99.99
2017-03-15T02:54:05.930Z,99.99
2017-03-15T02:54:34.060Z,99.99
2017-03-15T02:55:02.326Z,99.99
2017-03-15T02:55:30.586Z,99.99
2017-03-15T02:55:58.847Z,99.99
2017-03-15T02:56:27.007Z,99.99
2017-03-15T02:56:55.159Z,99.99
2017-03-15T02:57:23.361Z,99.99
2017-03-15T02:57:51.602Z,99.99
2017-03-15T02:58:19.748Z,99.99
2017-03-15T02:58:47.908Z,99.99
2017-03-15T02:59:16.227Z,99.99
2017-03-15T02:59:44.411Z,99.99
2017-03-15T03:00:12.554Z,99.99
2017-03-15T03:00:40.775Z,99.99
2017-03-15T03:01:08.850Z,99.99
2017-03-15T03:01:37.004Z,99.99
2017-03-15T03:02:05.270Z,99.99
2017-03-15T03:02:33.499Z,99.99
2017-03-15T03:03:01.706Z,99.99
2017-03-15T03:03:29.958Z,99.99
2017-03-15T03:03:58.123Z,99.99
2017-03-15T03:04:26.401Z,99.99
2017-03-15T03:04:54.589Z,99.99
2017-03-15T03:05:22.819Z,99.99
2017-03-15T03:05:50.976Z,99.99
2017-03-15T03:06:19.131Z,99.99
2017-03-15T03:06:47.208Z,99.99
2017-03-15T03:07:15.423Z,99.99
2017-03-15T03:07:43.615Z,99.99
2017-03-15T03:08:11.882Z,99.99
2017-03-15T03:08:40.166Z,99.99
2017-03-15T03:09:08.525Z,99.99
2017-03-15T03:09:36.678Z,99.99
2017-03-15T03:10:04.857Z,99.99
2017-03-15T03:10:32.829Z,99.99
2017-03-15T03:11:01.039Z,99.99
2017-03-15T03:11:29.326Z,99.99
2017-03-15T03:11:57.623Z,99.99
2017-03-15T03:12:25.861Z,99.99
2017-03-15T03:12:54.084Z,99.99
2017-03-15T03:13:22.304Z,99.99
2017-03-15T03:13:50.473Z,99.99
2017-03-15T03:14:18.744Z,99.99
2017-03-15T03:14:46.821Z,99.99
2017-03-15T03:15:15.032Z,99.99
2017-03-15T03:15:43.315Z,99.99
2017-03-15T03:16:11.587Z,99.99
2017-03-15T03:16:39.843Z,99.99
2017-03-15T03:17:07.784Z,99.99
2017-03-15T03:17:36.015Z,99.99
2017-03-15T03:18:04.168Z,99.99
2017-03-15T03:18:32.308Z,99.99
2017-03-15T03:19:00.751Z,99.99
2017-03-15T03:19:28.979Z,99.99
2017-03-15T03:19:57.248Z,99.99
2017-03-15T03:20:25.460Z,99.99
2017-03-15T03:20:53.701Z,99.99
2017-03-15T03:21:21.913Z,99.99
2017-03-15T03:21:50.039Z,99.99
2017-03-15T03:22:18.208Z,99.99
2017-03-15T03:22:46.272Z,99.99
2017-03-15T03:23:14.501Z,99.99
2017-03-15T03:23:42.567Z,99.99
2017-03-15T03:24:10.719Z,99.99
2017-03-15T03:24:38.889Z,99.99
2017-03-15T03:25:07.017Z,99.99
2017-03-15T03:25:35.097Z,99.99
2017-03-15T03:26:03.160Z,99.99
2017-03-15T03:26:31.421Z,99.99
2017-03-15T03:26:59.451Z,99.99
2017-03-15T03:27:27.679Z,99.99
2017-03-15T03:27:55.822Z,99.99
2017-03-15T03:28:24.025Z,99.99
2017-03-15T03:28:52.279Z,99.99
2017-03-15T03:29:20.705Z,99.99
2017-03-15T03:29:48.867Z,99.99
2017-03-15T03:30:17.025Z,99.99
2017-03-15T03:30:45.286Z,99.99
2017-03-15T03:31:13.347Z,99.99
2017-03-15T03:31:41.562Z,99.99
2017-03-15T03:32:09.696Z,99.99
2017-03-15T03:32:37.935Z,99.99
2017-03-15T03:33:06.156Z,99.99
2017-03-15T03:33:34.415Z,99.99
2017-03-15T03:34:02.659Z,99.99
2017-03-15T03:34:31.055Z,99.99
2017-03-15T03:34:59.298Z,99.99
2017-03-15T03:35:27.487Z,99.99
2017-03-15T03:35:55.633Z,99.99
2017-03-15T03:36:23.791Z,99.99
2017-03-15T03:36:51.837Z,99.99
2017-03-15T03:37:19.989Z,99.99
2017-03-15T03:37:48.096Z,99.99
2017-03-15T03:38:16.342Z,99.99
2017-03-15T03:38:44.484Z,99.99
2017-03-15T03:39:12.760Z,99.99
2017-03-15T03:39:41.018Z,99.99
2017-03-15T03:40:08.970Z,99.99
2017-03-15T03:40:37.215Z,99.99
2017-03-15T03:41:05.419Z,99.99
2017-03-15T03:41:33.671Z,99.99
2017-03-15T03:42:01.896Z,99.99
2017-03-15T03:42:30.033Z,99.99
2017-03-15T03:42:58.178Z,99.99
2017-03-15T03:43:26.447Z,99.99
2017-03-15T03:43:54.487Z,99.99
2017-03-15T03:44:22.652Z,99.99
2017-03-15T03:44:50.902Z,99.99
2017-03-15T03:45:19.084Z,99.99
2017-03-15T03:45:47.263Z,99.99
2017-03-15T03:46:15.320Z,99.99
2017-03-15T03:46:43.516Z,99.99
2017-03-15T03:47:11.669Z,99.99
2017-03-15T03:47:39.973Z,99.99
2017-03-15T03:48:08.107Z,99.99
2017-03-15T03:48:36.337Z,99.99
2017-03-15T03:49:04.587Z,99.99
2017-03-15T03:49:32.861Z,99.99
2017-03-15T03:50:01.008Z,99.99
2017-03-15T03:50:29.224Z,99.99
2017-03-15T03:50:57.371Z,99.99
2017-03-15T03:51:25.600Z,99.99
2017-03-15T03:51:53.743Z,99.99
2017-03-15T03:52:21.693Z,99.99
2017-03-15T03:52:49.773Z,99.99
2017-03-15T03:53:18.036Z,99.99
2017-03-15T03:53:46.252Z,99.99
2017-03-15T03:54:14.486Z,99.99
2017-03-15T03:54:42.899Z,99.99
2017-03-15T03:55:11.138Z,99.99
2017-03-15T03:55:39.534Z,99.99
2017-03-15T03:56:07.755Z,99.99
2017-03-15T03:56:35.886Z,99.99
2017-03-15T03:57:04.142Z,99.99
2017-03-15T03:57:32.204Z,99.99
2017-03-15T03:58:00.463Z,99.99
2017-03-15T03:58:28.686Z,99.99
2017-03-15T03:58:56.968Z,99.99
2017-03-15T03:59:25.295Z,99.99
2017-03-15T03:59:53.325Z,99.99
2017-03-15T04:00:21.560Z,99.99
2017-03-15T04:00:49.896Z,99.99
2017-03-15T04:01:18.008Z,99.99
2017-03-15T04:01:46.163Z,99.99
2017-03-15T04:02:14.324Z,99.99
2017-03-15T04:02:42.469Z,99.99
2017-03-15T04:03:10.600Z,99.99
2017-03-15T04:03:38.698Z,99.99
2017-03-15T04:04:06.970Z,99.99
2017-03-15T04:04:35.187Z,99.99
2017-03-15T04:05:03.361Z,99.99
2017-03-15T04:05:31.516Z,99.99
2017-03-15T04:05:59.750Z,99.99
2017-03-15T04:06:27.882Z,99.99
2017-03-15T04:06:56.004Z,99.99
2017-03-15T04:07:24.290Z,99.99
2017-03-15T04:07:52.555Z,99.99
2017-03-15T04:08:20.741Z,99.99
2017-03-15T04:08:48.993Z,99.99
2017-03-15T04:09:17.270Z,99.99
2017-03-15T04:09:45.384Z,99.99
2017-03-15T04:10:13.407Z,99.99
2017-03-15T04:10:41.462Z,99.99
2017-03-15T04:11:09.534Z,99.99
2017-03-15T04:11:37.703Z,99.99
2017-03-15T04:12:05.934Z,99.99
2017-03-15T04:12:34.133Z,99.99
2017-03-15T04:13:02.391Z,99.99
2017-03-15T04:13:30.527Z,99.99
2017-03-15T04:13:58.681Z,99.99
2017-03-15T04:14:27.067Z,99.99
2017-03-15T04:14:55.323Z,99.99
2017-03-15T04:15:23.549Z,99.99
2017-03-15T04:15:51.712Z,99.99
2017-03-15T04:16:19.878Z,99.99
2017-03-15T04:16:48.153Z,99.99
2017-03-15T04:17:16.456Z,99.99
2017-03-15T04:17:44.805Z,99.99
2017-03-15T04:18:13.155Z,99.99
2017-03-15T04:18:41.409Z,99.99
2017-03-15T04:19:09.742Z,99.99
2017-03-15T04:19:38.066Z,99.99
2017-03-15T04:20:06.222Z,99.99
2017-03-15T04:20:34.382Z,99.99
2017-03-15T04:21:02.575Z,99.99
2017-03-15T04:21:30.822Z,99.99
2017-03-15T04:21:59.015Z,99.99
2017-03-15T04:22:27.187Z,99.99
2017-03-15T04:22:55.228Z,99.99
2017-03-15T04:23:23.453Z,99.99
2017-03-15T04:23:51.688Z,99.99
2017-03-15T04:24:19.883Z,99.99
2017-03-15T04:24:48.124Z,99.99
2017-03-15T04:25:16.254Z,99.99
2017-03-15T04:25:44.493Z,99.99
2017-03-15T04:26:12.627Z,99.99
2017-03-15T04:26:40.857Z,99.99
2017-03-15T04:27:09.069Z,99.99
2017-03-15T04:27:37.266Z,99.99
2017-03-15T04:28:05.395Z,99.99
2017-03-15T04:28:33.611Z,99.99
2017-03-15T04:29:01.821Z,99.99
2017-03-15T04:29:30.067Z,99.99
2017-03-15T04:29:58.318Z,99.99
2017-03-15T04:30:26.480Z,99.99
2017-03-15T04:30:54.755Z,99.99
2017-03-15T04:31:22.967Z,99.99
2017-03-15T04:31:51.192Z,99.99
2017-03-15T04:32:19.453Z,99.99
2017-03-15T04:32:47.685Z,99.99
2017-03-15T04:33:15.903Z,99.99
2017-03-15T04:33:43.883Z,99.99
2017-03-15T04:34:12.133Z,99.99
2017-03-15T04:34:40.380Z,99.99
2017-03-15T04:35:08.432Z,99.99
2017-03-15T04:35:36.717Z,99.99
2017-03-15T04:36:04.874Z,99.99
2017-03-15T04:36:33.200Z,99.99
2017-03-15T04:37:01.285Z,99.99
2017-03-15T04:37:29.540Z,99.99
2017-03-15T04:37:57.619Z,99.99
2017-03-15T04:38:25.731Z,99.99
2017-03-15T04:38:53.916Z,99.99
2017-03-15T04:39:22.008Z,99.99
2017-03-15T04:39:50.257Z,99.99
2017-03-15T04:40:18.537Z,99.99
2017-03-15T04:40:46.647Z,99.99
2017-03-15T04:41:14.877Z,99.99
2017-03-15T04:41:42.982Z,99.99
2017-03-15T04:42:11.204Z,99.99
2017-03-15T04:42:39.369Z,99.99
2017-03-15T04:43:07.663Z,99.99
2017-03-15T04:43:35.783Z,99.99
2017-03-15T04:44:03.965Z,99.99
2017-03-15T04:44:32.140Z,99.99
2017-03-15T04:45:00.129Z,99.99
2017-03-15T04:45:28.245Z,99.99
2017-03-15T04:45:56.326Z,99.99
2017-03-15T04:46:24.541Z,99.99
2017-03-15T04:46:52.690Z,99.99
2017-03-15T04:47:20.944Z,99.99
2017-03-15T04:47:49.122Z,99.99
2017-03-15T04:48:17.359Z,99.99
2017-03-15T04:48:45.503Z,99.99
2017-03-15T04:49:13.725Z,99.99
2017-03-15T04:49:41.877Z,99.99
2017-03-15T04:50:10.066Z,99.99
2017-03-15T04:50:38.370Z,99.99
2017-03-15T04:51:06.648Z,99.99
2017-03-15T04:51:34.980Z,99.99
2017-03-15T04:52:03.052Z,99.99
2017-03-15T04:52:31.113Z,99.99
2017-03-15T04:52:59.362Z,99.99
2017-03-15T04:53:27.605Z,99.99
2017-03-15T04:53:55.660Z,99.99
2017-03-15T04:54:23.918Z,99.99
2017-03-15T04:54:52.108Z,99.99
2017-03-15T04:55:20.241Z,99.99
2017-03-15T04:55:48.386Z,99.99
2017-03-15T04:56:16.581Z,99.99
2017-03-15T04:56:44.843Z,99.99
2017-03-15T04:57:12.960Z,99.99
2017-03-15T04:57:41.227Z,99.99
2017-03-15T04:58:09.351Z,99.99
2017-03-15T04:58:37.533Z,99.99
2017-03-15T04:59:05.745Z,99.99
2017-03-15T04:59:33.844Z,99.99
2017-03-15T05:00:02.112Z,99.99
2017-03-15T05:00:30.252Z,99.99
2017-03-15T05:00:58.395Z,99.99
2017-03-15T05:01:26.622Z,99.99
2017-03-15T05:01:55.023Z,99.99
2017-03-15T05:02:23.182Z,99.99
2017-03-15T05:02:51.303Z,99.99
2017-03-15T05:03:19.573Z,99.99
2017-03-15T05:03:47.646Z,99.99
2017-03-15T05:04:15.812Z,99.99
2017-03-15T05:04:44.045Z,99.99
2017-03-15T05:05:12.189Z,99.99
2017-03-15T05:05:40.279Z,99.99
2017-03-15T05:06:08.502Z,99.99
2017-03-15T05:06:36.986Z,99.99
2017-03-15T05:07:05.479Z,99.99
2017-03-15T05:07:33.902Z,99.99
2017-03-15T05:08:02.051Z,99.99
2017-03-15T05:08:30.170Z,99.99
2017-03-15T05:08:58.389Z,99.99
2017-03-15T05:09:26.525Z,99.99
2017-03-15T05:09:54.706Z,99.99
2017-03-15T05:10:22.696Z,99.99
2017-03-15T05:10:50.883Z,99.99
2017-03-15T05:11:19.042Z,99.99
2017-03-15T05:11:47.295Z,99.99
2017-03-15T05:12:15.502Z,99.99
2017-03-15T05:12:43.771Z,99.99
2017-03-15T05:13:11.842Z,99.99
2017-03-15T05:13:39.888Z,99.99
2017-03-15T05:14:07.919Z,99.99
2017-03-15T05:14:36.115Z,99.99
2017-03-15T05:15:04.263Z,99.99
2017-03-15T05:15:32.478Z,99.99
2017-03-15T05:16:00.770Z,99.99
2017-03-15T05:16:29.010Z,99.99
2017-03-15T05:16:57.333Z,99.99
2017-03-15T05:17:25.578Z,99.99
2017-03-15T05:17:53.755Z,99.99
2017-03-15T05:18:21.887Z,99.99
2017-03-15T05:18:50.033Z,99.99
2017-03-15T05:19:18.251Z,99.99
2017-03-15T05:19:46.537Z,99.99
2017-03-15T05:20:14.677Z,99.99
2017-03-15T05:20:42.880Z,99.99
2017-03-15T05:21:10.971Z,99.99
2017-03-15T05:21:39.237Z,99.99
2017-03-15T05:22:07.581Z,99.99
2017-03-15T05:22:35.715Z,99.99
2017-03-15T05:23:03.972Z,99.99
2017-03-15T05:23:32.314Z,99.99
2017-03-15T05:24:00.621Z,99.99
2017-03-15T05:24:28.779Z,99.99
2017-03-15T05:24:57.082Z,99.99
2017-03-15T05:25:25.354Z,99.99
2017-03-15T05:25:53.598Z,99.99
2017-03-15T05:26:21.559Z,99.99
2017-03-15T05:26:49.826Z,99.99
2017-03-15T05:27:17.965Z,99.99
2017-03-15T05:27:46.154Z,99.99
2017-03-15T05:28:14.296Z,99.99
2017-03-15T05:28:42.482Z,99.99
2017-03-15T05:29:10.623Z,99.99
2017-03-15T05:29:38.765Z,99.99
2017-03-15T05:30:06.941Z,99.99
2017-03-15T05:30:35.211Z,99.99
2017-03-15T05:31:03.364Z,99.99
2017-03-15T05:31:31.563Z,99.99
2017-03-15T05:31:59.889Z,99.99
2017-03-15T05:32:28.157Z,99.99
2017-03-15T05:32:56.229Z,99.99
2017-03-15T05:33:24.305Z,99.99
2017-03-15T05:33:52.447Z,99.99
2017-03-15T05:34:20.564Z,99.99
2017-03-15T05:34:48.749Z,99.99
2017-03-15T05:35:17.027Z,99.99
2017-03-15T05:35:45.221Z,99.99
2017-03-15T05:36:13.435Z,99.99
2017-03-15T05:36:41.755Z,99.99
2017-03-15T05:37:10.012Z,99.99
2017-03-15T05:37:38.250Z,99.99
2017-03-15T05:38:06.525Z,99.99
2017-03-15T05:38:34.766Z,99.99
2017-03-15T05:39:02.994Z,99.99
2017-03-15T05:39:31.220Z,99.99
2017-03-15T05:39:59.465Z,99.99
2017-03-15T05:40:27.756Z,99.99
2017-03-15T05:40:55.822Z,99.99
2017-03-15T05:41:23.891Z,99.99
2017-03-15T05:41:52.261Z,99.99
2017-03-15T05:42:20.255Z,99.99
2017-03-15T05:42:48.205Z,99.99
2017-03-15T05:43:16.448Z,99.99
2017-03-15T05:43:44.526Z,99.99
2017-03-15T05:44:12.699Z,99.99
2017-03-15T05:44:40.897Z,99.99
2017-03-15T05:45:09.201Z,99.99
2017-03-15T05:45:37.322Z,99.99
2017-03-15T05:46:05.598Z,99.99
2017-03-15T05:46:33.782Z,99.99
2017-03-15T05:47:02.263Z,99.99
2017-03-15T05:47:30.439Z,99.99
2017-03-15T05:47:58.550Z,99.99
2017-03-15T05:48:26.790Z,99.99
2017-03-15T05:48:55.009Z,99.99
2017-03-15T05:49:23.153Z,99.99
2017-03-15T05:49:51.222Z,99.99
2017-03-15T05:50:19.332Z,99.99
2017-03-15T05:50:47.459Z,99.99
2017-03-15T05:51:15.509Z,99.99
2017-03-15T05:51:43.733Z,99.99
2017-03-15T05:52:11.942Z,99.99
2017-03-15T05:52:40.196Z,99.99
2017-03-15T05:53:08.367Z,99.99
2017-03-15T05:53:36.480Z,99.99
2017-03-15T05:54:04.741Z,99.99
2017-03-15T05:54:32.718Z,99.99
2017-03-15T05:55:00.938Z,99.99
2017-03-15T05:55:29.202Z,99.99
2017-03-15T05:55:57.443Z,99.99
2017-03-15T05:56:25.724Z,99.99
2017-03-15T05:56:53.881Z,99.99
2017-03-15T05:57:22.129Z,99.99
2017-03-15T05:57:50.423Z,99.99
2017-03-15T05:58:18.486Z,99.99
2017-03-15T05:58:46.582Z,99.99
2017-03-15T05:59:14.743Z,99.99
2017-03-15T05:59:42.985Z,99.99
2017-03-15T06:00:11.242Z,99.99
2017-03-15T06:00:39.480Z,99.99
2017-03-15T06:01:07.507Z,99.99
2017-03-15T06:01:35.754Z,99.99
2017-03-15T06:02:04.003Z,99.99
2017-03-15T06:02:32.146Z,99.99
2017-03-15T06:03:00.221Z,99.99
2017-03-15T06:03:28.441Z,99.99